sensor_id;sensor_type;location;lat;lon;timestamp;pressure;altitude;pressure_sealevel;temperature;humidity
61674;BME280;47573;43.832;5.974;2023-09-30T00:05:35;95717.72;;;29.89;44.61
61674;BME280;47573;43.832;5.974;2023-09-30T00:12:17;95728.72;;;29.99;44.13
61674;BME280;47573;43.832;5.974;2023-09-30T00:18:58;95731.19;;;29.91;44.53
61674;BME280;47573;43.832;5.974;2023-09-30T00:25:38;95728.19;;;29.87;44.75
61674;BME280;47573;43.832;5.974;2023-09-30T00:32:20;95718.25;;;29.86;44.41
61674;BME280;47573;43.832;5.974;2023-09-30T00:39:01;95727.06;;;29.88;44.32
61674;BME280;47573;43.832;5.974;2023-09-30T00:45:42;95716.06;;;29.83;44.77
61674;BME280;47573;43.832;5.974;2023-09-30T00:52:25;95725.44;;;29.87;44.27
61674;BME280;47573;43.832;5.974;2023-09-30T00:59:05;95728.44;;;29.86;44.49
61674;BME280;47573;43.832;5.974;2023-09-30T01:05:46;95716.63;;;29.85;44.76
61674;BME280;47573;43.832;5.974;2023-09-30T01:12:29;95710.56;;;29.83;44.58
61674;BME280;47573;43.832;5.974;2023-09-30T01:19:10;95706.16;;;29.82;44.85
61674;BME280;47573;43.832;5.974;2023-09-30T01:25:52;95702.31;;;29.83;44.39
61674;BME280;47573;43.832;5.974;2023-09-30T01:32:32;95699.00;;;29.81;44.46
61674;BME280;47573;43.832;5.974;2023-09-30T01:39:13;95697.34;;;29.80;44.79
61674;BME280;47573;43.832;5.974;2023-09-30T01:45:55;95682.50;;;29.81;44.79
61674;BME280;47573;43.832;5.974;2023-09-30T01:52:36;95684.69;;;29.79;44.52
61674;BME280;47573;43.832;5.974;2023-09-30T01:59:17;95672.84;;;29.79;44.86
61674;BME280;47573;43.832;5.974;2023-09-30T02:05:59;95679.44;;;29.78;44.34
61674;BME280;47573;43.832;5.974;2023-09-30T02:12:40;95689.38;;;29.79;44.76
61674;BME280;47573;43.832;5.974;2023-09-30T02:19:20;95692.38;;;29.77;44.85
61674;BME280;47573;43.832;5.974;2023-09-30T02:26:02;95692.38;;;29.77;44.82
61674;BME280;47573;43.832;5.974;2023-09-30T02:32:43;95705.59;;;29.75;44.70
61674;BME280;47573;43.832;5.974;2023-09-30T02:39:24;95707.25;;;29.76;44.63
61674;BME280;47573;43.832;5.974;2023-09-30T02:46:06;95700.63;;;29.72;44.60
61674;BME280;47573;43.832;5.974;2023-09-30T02:52:46;95700.63;;;29.72;44.64
61674;BME280;47573;43.832;5.974;2023-09-30T02:59:27;95696.78;;;29.73;44.56
61674;BME280;47573;43.832;5.974;2023-09-30T03:06:09;95691.81;;;29.70;44.57
61674;BME280;47573;43.832;5.974;2023-09-30T03:12:50;95689.34;;;29.69;44.86
61674;BME280;47573;43.832;5.974;2023-09-30T03:19:30;95691.81;;;29.70;44.71
61674;BME280;47573;43.832;5.974;2023-09-30T03:26:12;95678.59;;;29.72;44.79
61674;BME280;47573;43.832;5.974;2023-09-30T03:32:53;95662.63;;;29.69;44.80
61674;BME280;47573;43.832;5.974;2023-09-30T03:39:33;95663.22;;;29.66;44.91
61674;BME280;47573;43.832;5.974;2023-09-30T03:46:16;95683.03;;;29.68;45.14
61674;BME280;47573;43.832;5.974;2023-09-30T03:53:01;95689.34;;;29.69;44.55
61674;BME280;47573;43.832;5.974;2023-09-30T03:59:41;95683.03;;;29.68;44.69
61674;BME280;47573;43.832;5.974;2023-09-30T04:06:23;95689.91;;;29.66;45.00
61674;BME280;47573;43.832;5.974;2023-09-30T04:13:04;95683.56;;;29.65;44.63
61674;BME280;47573;43.832;5.974;2023-09-30T04:19:45;95689.91;;;29.66;45.00
61674;BME280;47573;43.832;5.974;2023-09-30T04:26:27;95685.22;;;29.66;44.96
61674;BME280;47573;43.832;5.974;2023-09-30T04:33:08;95688.81;;;29.62;44.86
61674;BME280;47573;43.832;5.974;2023-09-30T04:39:48;95692.94;;;29.64;44.65
61674;BME280;47573;43.832;5.974;2023-09-30T04:46:30;95686.88;;;29.57;44.77
61674;BME280;47573;43.832;5.974;2023-09-30T04:53:11;95686.34;;;29.60;44.97
61674;BME280;47573;43.832;5.974;2023-09-30T04:59:51;95698.44;;;29.54;45.04
61674;BME280;47573;43.832;5.974;2023-09-30T05:06:33;95701.75;;;29.41;44.68
61674;BME280;47573;43.832;5.974;2023-09-30T05:13:14;95696.69;;;29.03;45.53
61674;BME280;47573;43.832;5.974;2023-09-30T05:19:55;95706.06;;;29.02;45.85
61674;BME280;47573;43.832;5.974;2023-09-30T05:26:37;95706.59;;;28.99;46.12
61674;BME280;47573;43.832;5.974;2023-09-30T05:33:18;95704.88;;;28.73;45.69
61674;BME280;47573;43.832;5.974;2023-09-30T05:39:59;95718.88;;;28.66;46.08
61674;BME280;47573;43.832;5.974;2023-09-30T05:46:41;95719.75;;;28.77;46.01
61674;BME280;47573;43.832;5.974;2023-09-30T05:53:21;95726.91;;;28.83;46.37
61674;BME280;47573;43.832;5.974;2023-09-30T06:00:02;95720.56;;;28.82;46.37
61674;BME280;47573;43.832;5.974;2023-09-30T06:06:45;95724.16;;;28.83;46.91
61674;BME280;47573;43.832;5.974;2023-09-30T06:13:25;95729.38;;;28.84;46.64
61674;BME280;47573;43.832;5.974;2023-09-30T06:20:07;95738.47;;;28.85;46.49
61674;BME280;47573;43.832;5.974;2023-09-30T06:26:49;95755.47;;;28.82;46.89
61674;BME280;47573;43.832;5.974;2023-09-30T06:33:29;95759.09;;;28.87;46.35
61674;BME280;47573;43.832;5.974;2023-09-30T06:40:10;95757.41;;;28.86;46.68
61674;BME280;47573;43.832;5.974;2023-09-30T06:46:52;95761.56;;;28.89;46.97
61674;BME280;47573;43.832;5.974;2023-09-30T06:53:33;95776.44;;;28.98;46.58
61674;BME280;47573;43.832;5.974;2023-09-30T07:00:14;95778.63;;;29.01;46.67
61674;BME280;47573;43.832;5.974;2023-09-30T07:06:56;95789.75;;;29.26;46.52
61674;BME280;47573;43.832;5.974;2023-09-30T07:13:37;95795.84;;;29.43;46.15
61674;BME280;47573;43.832;5.974;2023-09-30T07:20:17;95806.25;;;29.26;46.20
61674;BME280;47573;43.832;5.974;2023-09-30T07:26:59;95805.75;;;29.54;48.72
61674;BME280;47573;43.832;5.974;2023-09-30T07:33:40;95815.09;;;29.53;46.41
61674;BME280;47573;43.832;5.974;2023-09-30T07:40:21;95792.53;;;29.51;46.52
61674;BME280;47573;43.832;5.974;2023-09-30T07:47:03;95790.91;;;29.50;46.53
61674;BME280;47573;43.832;5.974;2023-09-30T07:53:43;95796.94;;;29.67;46.37
61674;BME280;47573;43.832;5.974;2023-09-30T08:00:24;95802.72;;;29.61;46.29
61674;BME280;47573;43.832;5.974;2023-09-30T08:07:06;95803.03;;;29.64;46.20
61674;BME280;47573;43.832;5.974;2023-09-30T08:13:47;95805.75;;;29.69;46.22
61674;BME280;47573;43.832;5.974;2023-09-30T08:20:27;95812.41;;;29.73;46.00
61674;BME280;47573;43.832;5.974;2023-09-30T08:27:09;95807.47;;;29.80;46.11
61674;BME280;47573;43.832;5.974;2023-09-30T08:33:50;95822.31;;;29.84;45.96
61674;BME280;47573;43.832;5.974;2023-09-30T08:40:31;95824.00;;;29.85;45.66
61674;BME280;47573;43.832;5.974;2023-09-30T08:47:14;95827.28;;;29.92;45.83
61674;BME280;47573;43.832;5.974;2023-09-30T08:53:56;95824.53;;;29.92;45.95
61674;BME280;47573;43.832;5.974;2023-09-30T09:00:38;95829.47;;;30.00;45.59
61674;BME280;47573;43.832;5.974;2023-09-30T09:07:20;95818.47;;;30.00;45.67
61674;BME280;47573;43.832;5.974;2023-09-30T09:14:00;95826.75;;;30.05;45.48
61674;BME280;47573;43.832;5.974;2023-09-30T09:20:41;95817.38;;;30.11;45.25
61674;BME280;47573;43.832;5.974;2023-09-30T09:27:23;95832.81;;;30.12;45.53
61674;BME280;47573;43.832;5.974;2023-09-30T09:34:13;95841.63;;;30.14;45.30
61674;BME280;47573;43.832;5.974;2023-09-30T09:40:59;95827.28;;;30.23;45.28
61674;BME280;47573;43.832;5.974;2023-09-30T09:47:41;95850.13;;;30.23;45.37
61674;BME280;47573;43.832;5.974;2023-09-30T09:54:22;95820.69;;;30.34;44.74
61674;BME280;47573;43.832;5.974;2023-09-30T10:01:05;95830.31;;;30.36;45.16
61674;BME280;47573;43.832;5.974;2023-09-30T10:07:47;95830.59;;;30.40;44.75
61674;BME280;47573;43.832;5.974;2023-09-30T10:14:31;95811.88;;;30.37;45.13
61674;BME280;47573;43.832;5.974;2023-09-30T10:21:12;95802.47;;;30.38;45.18
61674;BME280;47573;43.832;5.974;2023-09-30T10:27:53;95816.25;;;30.48;45.12
61674;BME280;47573;43.832;5.974;2023-09-30T10:34:34;95816.81;;;30.50;44.80
61674;BME280;47573;43.832;5.974;2023-09-30T10:48:38;95814.03;;;30.55;45.23
61674;BME280;47573;43.832;5.974;2023-09-30T10:55:19;95807.38;;;30.61;45.13
61674;BME280;47573;43.832;5.974;2023-09-30T11:01:59;95809.31;;;30.65;45.16
61674;BME280;47573;43.832;5.974;2023-09-30T11:08:45;95798.53;;;30.69;44.96
61674;BME280;47573;43.832;5.974;2023-09-30T11:15:26;95810.66;;;30.73;45.23
61674;BME280;47573;43.832;5.974;2023-09-30T11:22:06;95799.09;;;30.76;44.86
61674;BME280;47573;43.832;5.974;2023-09-30T11:28:49;95784.22;;;30.77;45.12
61674;BME280;47573;43.832;5.974;2023-09-30T11:35:29;95783.63;;;30.80;44.84
61674;BME280;47573;43.832;5.974;2023-09-30T11:42:15;95783.66;;;30.85;44.93
61674;BME280;47573;43.832;5.974;2023-09-30T11:49:00;95774.50;;;30.94;44.87
61674;BME280;47573;43.832;5.974;2023-09-30T11:55:41;95780.53;;;31.02;44.75
61674;BME280;47573;43.832;5.974;2023-09-30T12:02:21;95785.22;;;31.01;44.88
61674;BME280;47573;43.832;5.974;2023-09-30T12:09:04;95770.59;;;31.06;45.21
61674;BME280;47573;43.832;5.974;2023-09-30T12:15:45;95771.44;;;31.50;44.48
61674;BME280;47573;43.832;5.974;2023-09-30T12:22:26;95768.34;;;31.61;44.20
61674;BME280;47573;43.832;5.974;2023-09-30T12:29:08;95770.16;;;31.76;44.05
61674;BME280;47573;43.832;5.974;2023-09-30T12:35:48;95762.09;;;31.85;43.62
61674;BME280;47573;43.832;5.974;2023-09-30T12:42:29;95756.22;;;31.91;43.71
61674;BME280;47573;43.832;5.974;2023-09-30T12:49:11;95753.72;;;31.95;43.88
61674;BME280;47573;43.832;5.974;2023-09-30T12:55:52;95747.63;;;31.98;43.36
61674;BME280;47573;43.832;5.974;2023-09-30T13:02:32;95737.09;;;32.00;43.75
61674;BME280;47573;43.832;5.974;2023-09-30T13:09:14;95734.31;;;32.05;43.48
61674;BME280;47573;43.832;5.974;2023-09-30T13:15:55;95718.22;;;32.12;43.12
61674;BME280;47573;43.832;5.974;2023-09-30T13:22:35;95723.16;;;32.15;43.15
61674;BME280;47573;43.832;5.974;2023-09-30T13:29:18;95715.38;;;32.17;43.68
61674;BME280;47573;43.832;5.974;2023-09-30T13:35:58;95703.50;;;32.16;43.37
61674;BME280;47573;43.832;5.974;2023-09-30T13:42:39;95707.63;;;32.19;43.25
61674;BME280;47573;43.832;5.974;2023-09-30T13:49:21;95696.84;;;32.22;43.66
61674;BME280;47573;43.832;5.974;2023-09-30T13:56:02;95689.28;;;32.28;43.64
61674;BME280;47573;43.832;5.974;2023-09-30T14:02:43;95683.78;;;32.28;43.40
61674;BME280;47573;43.832;5.974;2023-09-30T14:09:25;95687.28;;;32.33;43.21
61674;BME280;47573;43.832;5.974;2023-09-30T14:16:06;95691.47;;;32.31;43.59
61674;BME280;47573;43.832;5.974;2023-09-30T14:22:46;95685.72;;;32.27;43.80
61674;BME280;47573;43.832;5.974;2023-09-30T14:29:29;95687.59;;;32.32;43.64
61674;BME280;47573;43.832;5.974;2023-09-30T14:36:10;95688.28;;;32.19;43.44
61674;BME280;47573;43.832;5.974;2023-09-30T14:42:50;95691.56;;;31.92;44.29
61674;BME280;47573;43.832;5.974;2023-09-30T14:49:33;95684.75;;;31.85;44.27
61674;BME280;47573;43.832;5.974;2023-09-30T14:56:16;95683.41;;;31.77;45.14
61674;BME280;47573;43.832;5.974;2023-09-30T15:02:57;95682.13;;;31.69;45.12
61674;BME280;47573;43.832;5.974;2023-09-30T15:09:39;95684.88;;;31.69;44.86
61674;BME280;47573;43.832;5.974;2023-09-30T15:16:21;95683.75;;;31.70;44.98
61674;BME280;47573;43.832;5.974;2023-09-30T15:23:02;95686.34;;;31.62;45.36
61674;BME280;47573;43.832;5.974;2023-09-30T15:29:44;95696.50;;;31.66;45.30
61674;BME280;47573;43.832;5.974;2023-09-30T15:36:24;95699.25;;;31.66;45.47
61674;BME280;47573;43.832;5.974;2023-09-30T15:43:05;95701.47;;;31.64;45.52
61674;BME280;47573;43.832;5.974;2023-09-30T15:49:47;95687.75;;;31.59;45.80
61674;BME280;47573;43.832;5.974;2023-09-30T15:56:28;95691.03;;;31.61;45.74
61674;BME280;47573;43.832;5.974;2023-09-30T16:03:09;95694.91;;;31.60;45.45
61674;BME280;47573;43.832;5.974;2023-09-30T16:09:51;95680.22;;;31.65;45.63
61674;BME280;47573;43.832;5.974;2023-09-30T16:16:32;95684.38;;;31.62;45.82
61674;BME280;47573;43.832;5.974;2023-09-30T16:23:13;95688.47;;;31.70;45.39
61674;BME280;47573;43.832;5.974;2023-09-30T16:29:55;95690.72;;;31.68;45.24
61674;BME280;47573;43.832;5.974;2023-09-30T16:36:35;95688.94;;;31.77;44.88
61674;BME280;47573;43.832;5.974;2023-09-30T16:43:16;95684.56;;;31.76;44.72
61674;BME280;47573;43.832;5.974;2023-09-30T16:49:58;95692.00;;;31.76;43.66
61674;BME280;47573;43.832;5.974;2023-09-30T16:56:39;95695.84;;;31.80;43.36
61674;BME280;47573;43.832;5.974;2023-09-30T17:03:19;95694.47;;;31.77;43.33
61674;BME280;47573;43.832;5.974;2023-09-30T17:10:01;95699.72;;;31.79;43.82
61674;BME280;47573;43.832;5.974;2023-09-30T17:16:42;95707.00;;;31.64;44.04
61674;BME280;47573;43.832;5.974;2023-09-30T17:23:23;95726.88;;;31.66;43.68
61674;BME280;47573;43.832;5.974;2023-09-30T17:30:06;95717.06;;;31.50;40.03
61674;BME280;47573;43.832;5.974;2023-09-30T17:36:47;95739.75;;;31.42;39.48
61674;BME280;47573;43.832;5.974;2023-09-30T17:43:28;95734.78;;;31.44;37.22
61674;BME280;47573;43.832;5.974;2023-09-30T17:50:10;95746.94;;;31.38;37.23
61674;BME280;47573;43.832;5.974;2023-09-30T17:56:51;95747.56;;;31.25;37.87
61674;BME280;47573;43.832;5.974;2023-09-30T18:03:31;95756.44;;;31.17;37.64
61674;BME280;47573;43.832;5.974;2023-09-30T18:10:14;95750.94;;;31.17;37.28
61674;BME280;47573;43.832;5.974;2023-09-30T18:16:54;95757.06;;;31.04;37.70
61674;BME280;47573;43.832;5.974;2023-09-30T18:23:35;95758.78;;;30.95;38.01
61674;BME280;47573;43.832;5.974;2023-09-30T18:30:17;95763.75;;;30.88;38.14
61674;BME280;47573;43.832;5.974;2023-09-30T18:36:58;95765.97;;;30.86;38.24
61674;BME280;47573;43.832;5.974;2023-09-30T18:43:38;95776.47;;;30.79;37.94
61674;BME280;47573;43.832;5.974;2023-09-30T18:50:20;95783.91;;;30.73;37.74
61674;BME280;47573;43.832;5.974;2023-09-30T18:57:01;95787.81;;;30.72;37.41
61674;BME280;47573;43.832;5.974;2023-09-30T19:03:41;95781.72;;;30.75;38.06
61674;BME280;47573;43.832;5.974;2023-09-30T19:10:23;95785.84;;;30.78;38.11
61674;BME280;47573;43.832;5.974;2023-09-30T19:17:04;95789.19;;;30.70;38.24
61674;BME280;47573;43.832;5.974;2023-09-30T19:23:45;95788.34;;;30.69;38.07
61674;BME280;47573;43.832;5.974;2023-09-30T19:30:26;95784.53;;;30.60;38.25
61674;BME280;47573;43.832;5.974;2023-09-30T19:37:07;95793.91;;;30.59;38.45
61674;BME280;47573;43.832;5.974;2023-09-30T19:43:48;95798.03;;;30.57;38.40
61674;BME280;47573;43.832;5.974;2023-09-30T19:50:30;95808.53;;;30.45;38.86
61674;BME280;47573;43.832;5.974;2023-09-30T19:57:10;95801.41;;;30.39;39.08
61674;BME280;47573;43.832;5.974;2023-09-30T20:03:51;95806.34;;;30.37;39.55
61674;BME280;47573;43.832;5.974;2023-09-30T20:10:33;95815.72;;;30.36;38.94
61674;BME280;47573;43.832;5.974;2023-09-30T20:17:14;95806.91;;;30.34;39.00
61674;BME280;47573;43.832;5.974;2023-09-30T20:23:55;95808.00;;;30.23;39.19
61674;BME280;47573;43.832;5.974;2023-09-30T20:30:37;95810.75;;;30.17;39.08
61674;BME280;47573;43.832;5.974;2023-09-30T20:37:17;95807.75;;;30.14;39.45
61674;BME280;47573;43.832;5.974;2023-09-30T20:43:58;95797.28;;;30.06;39.11
61674;BME280;47573;43.832;5.974;2023-09-30T20:50:40;95802.50;;;30.07;39.51
61674;BME280;47573;43.832;5.974;2023-09-30T20:57:20;95798.63;;;30.08;39.62
61674;BME280;47573;43.832;5.974;2023-09-30T21:04:01;95791.50;;;29.97;39.43
61674;BME280;47573;43.832;5.974;2023-09-30T21:10:43;95789.84;;;29.96;39.51
61674;BME280;47573;43.832;5.974;2023-09-30T21:17:23;95791.78;;;29.91;39.73
61674;BME280;47573;43.832;5.974;2023-09-30T21:24:05;95799.47;;;29.89;40.16
61674;BME280;47573;43.832;5.974;2023-09-30T21:30:47;95803.06;;;29.84;40.49
61674;BME280;47573;43.832;5.974;2023-09-30T21:37:27;95802.50;;;29.77;40.42
61674;BME280;47573;43.832;5.974;2023-09-30T21:44:08;95802.50;;;29.77;40.79
61674;BME280;47573;43.832;5.974;2023-09-30T21:50:49;95803.06;;;29.84;41.09
61674;BME280;47573;43.832;5.974;2023-09-30T21:57:30;95809.63;;;29.68;40.99
61674;BME280;47573;43.832;5.974;2023-09-30T22:04:11;95813.50;;;29.72;40.71
61674;BME280;47573;43.832;5.974;2023-09-30T22:10:54;95814.03;;;29.64;41.16
61674;BME280;47573;43.832;5.974;2023-09-30T22:17:35;95813.78;;;29.71;41.10
61674;BME280;47573;43.832;5.974;2023-09-30T22:24:15;95805.22;;;29.72;41.40
61674;BME280;47573;43.832;5.974;2023-09-30T22:30:57;95801.66;;;29.67;41.66
61674;BME280;47573;43.832;5.974;2023-09-30T22:37:38;95819.84;;;29.88;41.73
61674;BME280;47573;43.832;5.974;2023-09-30T22:44:18;95811.88;;;29.96;42.46
61674;BME280;47573;43.832;5.974;2023-09-30T22:51:00;95817.09;;;30.03;42.34
61674;BME280;47573;43.832;5.974;2023-09-30T22:57:40;95816.56;;;30.06;42.57
61674;BME280;47573;43.832;5.974;2023-09-30T23:04:21;95819.03;;;30.07;42.93
61674;BME280;47573;43.832;5.974;2023-09-30T23:11:10;95820.13;;;30.11;43.01
61674;BME280;47573;43.832;5.974;2023-09-30T23:17:51;95826.72;;;30.26;43.01
61674;BME280;47573;43.832;5.974;2023-09-30T23:24:32;95825.09;;;30.25;43.42
61674;BME280;47573;43.832;5.974;2023-09-30T23:31:14;95811.31;;;30.25;43.28
61674;BME280;47573;43.832;5.974;2023-09-30T23:37:55;95808.56;;;30.25;43.58
61674;BME280;47573;43.832;5.974;2023-09-30T23:44:35;95818.44;;;30.26;43.72
61674;BME280;47573;43.832;5.974;2023-09-30T23:51:17;95832.22;;;30.26;43.45
61674;BME280;47573;43.832;5.974;2023-09-30T23:57:58;95829.47;;;30.26;43.47
